Terminal Aerodrome Forecast
Issued by NWS Nashville, TN

Home | Current Version | Previous Version | Text Only | Print | Product List | Glossary On
Versions: 1 2 3 4 5 6 7 8 9 10 11 12 13 14 15 16 17 18 19 20 21 22 23 24 25 26 27 28 29
000
FTUS44 KOHX 191802 AAA
TAFBNA
TAF AMD
KBNA 191802Z 1918/2018 00000KT P6SM OVC020
     FM192000 31003KT P6SM SKC
     FM200800 13002KT 4SM BR BKN250
     FM201500 13003KT P6SM BKN250=

USA.gov is the U.S. government's official web portal to all federal, state and local government web resources and services.